sensor_id;sensor_type;location;lat;lon;timestamp;P1;durP1;ratioP1;P2;durP2;ratioP2
27145;SDS011;17980;51.744;7.190;2022-09-20T00:01:56;8.80;;;1.43;;
27145;SDS011;17980;51.744;7.190;2022-09-20T00:04:24;8.57;;;2.00;;
27145;SDS011;17980;51.744;7.190;2022-09-20T00:06:51;7.23;;;1.03;;
27145;SDS011;17980;51.744;7.190;2022-09-20T00:09:18;9.93;;;1.43;;
27145;SDS011;17980;51.744;7.190;2022-09-20T00:11:55;8.30;;;1.20;;
27145;SDS011;17980;51.744;7.190;2022-09-20T00:14:22;7.33;;;1.30;;
27145;SDS011;17980;51.744;7.190;2022-09-20T00:16:49;7.33;;;1.20;;
27145;SDS011;17980;51.744;7.190;2022-09-20T00:21:53;5.33;;;1.00;;
27145;SDS011;17980;51.744;7.190;2022-09-20T00:24:20;11.27;;;1.40;;
27145;SDS011;17980;51.744;7.190;2022-09-20T00:26:47;5.57;;;1.00;;
27145;SDS011;17980;51.744;7.190;2022-09-20T00:29:14;10.07;;;1.57;;
27145;SDS011;17980;51.744;7.190;2022-09-20T00:31:51;5.53;;;1.60;;
27145;SDS011;17980;51.744;7.190;2022-09-20T00:34:18;5.83;;;1.30;;
27145;SDS011;17980;51.744;7.190;2022-09-20T00:37:04;7.67;;;1.50;;
27145;SDS011;17980;51.744;7.190;2022-09-20T00:39:31;7.33;;;1.17;;
27145;SDS011;17980;51.744;7.190;2022-09-20T00:41:58;10.17;;;1.40;;
27145;SDS011;17980;51.744;7.190;2022-09-20T00:44:42;6.17;;;1.10;;
27145;SDS011;17980;51.744;7.190;2022-09-20T00:47:14;9.43;;;1.80;;
27145;SDS011;17980;51.744;7.190;2022-09-20T00:49:47;11.43;;;1.60;;
27145;SDS011;17980;51.744;7.190;2022-09-20T00:52:24;6.80;;;1.20;;
27145;SDS011;17980;51.744;7.190;2022-09-20T00:54:53;10.70;;;1.57;;
27145;SDS011;17980;51.744;7.190;2022-09-20T00:57:21;4.57;;;1.43;;
27145;SDS011;17980;51.744;7.190;2022-09-20T00:59:48;8.13;;;1.90;;
27145;SDS011;17980;51.744;7.190;2022-09-20T01:02:27;7.33;;;2.00;;
27145;SDS011;17980;51.744;7.190;2022-09-20T01:04:56;6.13;;;1.40;;
27145;SDS011;17980;51.744;7.190;2022-09-20T01:07:24;5.50;;;1.10;;
27145;SDS011;17980;51.744;7.190;2022-09-20T01:09:52;7.07;;;1.80;;
27145;SDS011;17980;51.744;7.190;2022-09-20T01:12:29;5.43;;;1.40;;
27145;SDS011;17980;51.744;7.190;2022-09-20T01:15:00;11.70;;;2.30;;
27145;SDS011;17980;51.744;7.190;2022-09-20T01:17:30;7.43;;;1.70;;
27145;SDS011;17980;51.744;7.190;2022-09-20T01:20:08;10.43;;;2.10;;
27145;SDS011;17980;51.744;7.190;2022-09-20T01:22:48;8.63;;;1.60;;
27145;SDS011;17980;51.744;7.190;2022-09-20T01:25:24;8.87;;;1.77;;
27145;SDS011;17980;51.744;7.190;2022-09-20T01:27:56;9.10;;;1.90;;
27145;SDS011;17980;51.744;7.190;2022-09-20T01:30:24;8.17;;;1.70;;
27145;SDS011;17980;51.744;7.190;2022-09-20T01:33:05;8.83;;;2.20;;
27145;SDS011;17980;51.744;7.190;2022-09-20T01:35:35;6.67;;;1.73;;
27145;SDS011;17980;51.744;7.190;2022-09-20T01:38:08;8.13;;;2.20;;
27145;SDS011;17980;51.744;7.190;2022-09-20T01:40:42;7.23;;;1.97;;
27145;SDS011;17980;51.744;7.190;2022-09-20T01:43:15;5.47;;;1.50;;
27145;SDS011;17980;51.744;7.190;2022-09-20T01:45:52;8.50;;;1.87;;
27145;SDS011;17980;51.744;7.190;2022-09-20T01:48:23;9.83;;;2.00;;
27145;SDS011;17980;51.744;7.190;2022-09-20T01:51:08;7.80;;;2.30;;
27145;SDS011;17980;51.744;7.190;2022-09-20T01:53:58;7.90;;;1.93;;
27145;SDS011;17980;51.744;7.190;2022-09-20T01:59:44;7.37;;;1.90;;
27145;SDS011;17980;51.744;7.190;2022-09-20T02:05:39;11.67;;;2.63;;
27145;SDS011;17980;51.744;7.190;2022-09-20T02:08:31;5.37;;;2.10;;
27145;SDS011;17980;51.744;7.190;2022-09-20T02:11:16;6.80;;;2.47;;
27145;SDS011;17980;51.744;7.190;2022-09-20T02:14:06;8.37;;;2.40;;
27145;SDS011;17980;51.744;7.190;2022-09-20T02:16:48;12.17;;;3.20;;
27145;SDS011;17980;51.744;7.190;2022-09-20T02:22:30;4.80;;;2.17;;
27145;SDS011;17980;51.744;7.190;2022-09-20T02:25:13;8.17;;;2.10;;
27145;SDS011;17980;51.744;7.190;2022-09-20T02:27:58;5.20;;;2.13;;
27145;SDS011;17980;51.744;7.190;2022-09-20T02:30:33;7.33;;;2.20;;
27145;SDS011;17980;51.744;7.190;2022-09-20T02:33:12;9.03;;;2.70;;
27145;SDS011;17980;51.744;7.190;2022-09-20T02:36:02;11.87;;;3.30;;
27145;SDS011;17980;51.744;7.190;2022-09-20T02:38:41;6.50;;;2.70;;
27145;SDS011;17980;51.744;7.190;2022-09-20T02:41:25;11.80;;;2.47;;
27145;SDS011;17980;51.744;7.190;2022-09-20T02:44:14;8.10;;;2.57;;
27145;SDS011;17980;51.744;7.190;2022-09-20T02:46:55;9.77;;;2.47;;
27145;SDS011;17980;51.744;7.190;2022-09-20T02:49:27;11.43;;;2.70;;
27145;SDS011;17980;51.744;7.190;2022-09-20T02:51:59;8.23;;;3.30;;
27145;SDS011;17980;51.744;7.190;2022-09-20T02:54:29;20.47;;;2.90;;
27145;SDS011;17980;51.744;7.190;2022-09-20T02:57:01;8.23;;;3.23;;
27145;SDS011;17980;51.744;7.190;2022-09-20T02:59:40;8.93;;;3.60;;
27145;SDS011;17980;51.744;7.190;2022-09-20T03:02:14;14.60;;;3.93;;
27145;SDS011;17980;51.744;7.190;2022-09-20T03:04:54;14.30;;;3.37;;
27145;SDS011;17980;51.744;7.190;2022-09-20T03:07:48;8.60;;;3.00;;
27145;SDS011;17980;51.744;7.190;2022-09-20T03:10:30;10.27;;;3.47;;
27145;SDS011;17980;51.744;7.190;2022-09-20T03:13:04;7.87;;;2.63;;
27145;SDS011;17980;51.744;7.190;2022-09-20T03:15:37;8.60;;;3.17;;
27145;SDS011;17980;51.744;7.190;2022-09-20T03:18:09;8.97;;;2.73;;
27145;SDS011;17980;51.744;7.190;2022-09-20T03:20:51;7.33;;;2.77;;
27145;SDS011;17980;51.744;7.190;2022-09-20T03:23:24;10.00;;;3.27;;
27145;SDS011;17980;51.744;7.190;2022-09-20T03:28:35;8.67;;;3.93;;
27145;SDS011;17980;51.744;7.190;2022-09-20T03:31:13;8.07;;;4.20;;
27145;SDS011;17980;51.744;7.190;2022-09-20T03:33:45;7.77;;;3.53;;
27145;SDS011;17980;51.744;7.190;2022-09-20T03:36:20;12.57;;;4.00;;
27145;SDS011;17980;51.744;7.190;2022-09-20T03:39:04;7.83;;;3.70;;
27145;SDS011;17980;51.744;7.190;2022-09-20T03:41:51;13.50;;;3.40;;
27145;SDS011;17980;51.744;7.190;2022-09-20T03:47:48;8.37;;;3.47;;
27145;SDS011;17980;51.744;7.190;2022-09-20T03:50:43;8.53;;;3.97;;
27145;SDS011;17980;51.744;7.190;2022-09-20T03:53:27;7.37;;;3.87;;
27145;SDS011;17980;51.744;7.190;2022-09-20T03:56:04;10.53;;;4.10;;
27145;SDS011;17980;51.744;7.190;2022-09-20T03:59:02;11.03;;;4.33;;
27145;SDS011;17980;51.744;7.190;2022-09-20T04:01:52;6.73;;;3.40;;
27145;SDS011;17980;51.744;7.190;2022-09-20T04:04:51;12.37;;;4.70;;
27145;SDS011;17980;51.744;7.190;2022-09-20T04:07:22;13.30;;;3.80;;
27145;SDS011;17980;51.744;7.190;2022-09-20T04:12:58;12.53;;;3.87;;
27145;SDS011;17980;51.744;7.190;2022-09-20T04:15:36;11.43;;;3.97;;
27145;SDS011;17980;51.744;7.190;2022-09-20T04:18:16;11.53;;;4.67;;
27145;SDS011;17980;51.744;7.190;2022-09-20T04:20:49;15.17;;;5.37;;
27145;SDS011;17980;51.744;7.190;2022-09-20T04:23:31;10.63;;;4.70;;
27145;SDS011;17980;51.744;7.190;2022-09-20T04:26:02;13.73;;;4.70;;
27145;SDS011;17980;51.744;7.190;2022-09-20T04:28:33;8.70;;;4.20;;
27145;SDS011;17980;51.744;7.190;2022-09-20T04:31:04;11.77;;;4.47;;
27145;SDS011;17980;51.744;7.190;2022-09-20T04:33:44;12.47;;;4.50;;
27145;SDS011;17980;51.744;7.190;2022-09-20T04:36:33;14.77;;;4.90;;
27145;SDS011;17980;51.744;7.190;2022-09-20T04:39:07;10.00;;;4.13;;
27145;SDS011;17980;51.744;7.190;2022-09-20T04:41:45;13.67;;;5.90;;
27145;SDS011;17980;51.744;7.190;2022-09-20T04:44:48;12.60;;;6.17;;
27145;SDS011;17980;51.744;7.190;2022-09-20T04:47:35;14.83;;;5.70;;
27145;SDS011;17980;51.744;7.190;2022-09-20T04:50:25;15.07;;;5.90;;
27145;SDS011;17980;51.744;7.190;2022-09-20T04:53:16;10.27;;;5.20;;
27145;SDS011;17980;51.744;7.190;2022-09-20T04:56:00;10.33;;;5.97;;
27145;SDS011;17980;51.744;7.190;2022-09-20T04:58:34;10.17;;;4.67;;
27145;SDS011;17980;51.744;7.190;2022-09-20T05:04:29;14.53;;;5.73;;
27145;SDS011;17980;51.744;7.190;2022-09-20T05:13:56;12.90;;;5.03;;
27145;SDS011;17980;51.744;7.190;2022-09-20T05:16:59;9.63;;;5.63;;
27145;SDS011;17980;51.744;7.190;2022-09-20T05:19:43;18.53;;;5.63;;
27145;SDS011;17980;51.744;7.190;2022-09-20T05:22:27;6.97;;;4.63;;
27145;SDS011;17980;51.744;7.190;2022-09-20T05:28:50;12.20;;;5.00;;
27145;SDS011;17980;51.744;7.190;2022-09-20T05:31:43;10.47;;;5.30;;
27145;SDS011;17980;51.744;7.190;2022-09-20T05:34:38;17.43;;;5.53;;
27145;SDS011;17980;51.744;7.190;2022-09-20T05:37:38;16.77;;;5.93;;
27145;SDS011;17980;51.744;7.190;2022-09-20T05:40:24;16.03;;;5.20;;
27145;SDS011;17980;51.744;7.190;2022-09-20T05:43:04;15.90;;;6.37;;
27145;SDS011;17980;51.744;7.190;2022-09-20T05:48:39;14.63;;;4.73;;
27145;SDS011;17980;51.744;7.190;2022-09-20T05:51:15;10.13;;;6.40;;
27145;SDS011;17980;51.744;7.190;2022-09-20T05:54:00;12.63;;;6.70;;
27145;SDS011;17980;51.744;7.190;2022-09-20T05:56:55;15.73;;;7.30;;
27145;SDS011;17980;51.744;7.190;2022-09-20T06:02:20;14.40;;;7.63;;
27145;SDS011;17980;51.744;7.190;2022-09-20T06:04:54;12.97;;;6.27;;
27145;SDS011;17980;51.744;7.190;2022-09-20T06:07:42;15.27;;;4.80;;
27145;SDS011;17980;51.744;7.190;2022-09-20T06:10:30;11.90;;;4.87;;
27145;SDS011;17980;51.744;7.190;2022-09-20T06:13:16;8.90;;;4.90;;
27145;SDS011;17980;51.744;7.190;2022-09-20T06:15:57;11.90;;;4.60;;
27145;SDS011;17980;51.744;7.190;2022-09-20T06:18:26;9.97;;;5.20;;
27145;SDS011;17980;51.744;7.190;2022-09-20T06:21:02;15.83;;;5.53;;
27145;SDS011;17980;51.744;7.190;2022-09-20T06:23:39;15.33;;;5.60;;
27145;SDS011;17980;51.744;7.190;2022-09-20T06:26:08;13.90;;;5.77;;
27145;SDS011;17980;51.744;7.190;2022-09-20T06:28:46;12.83;;;4.93;;
27145;SDS011;17980;51.744;7.190;2022-09-20T06:31:16;17.03;;;6.03;;
27145;SDS011;17980;51.744;7.190;2022-09-20T06:33:54;10.53;;;5.43;;
27145;SDS011;17980;51.744;7.190;2022-09-20T06:36:24;15.33;;;8.20;;
27145;SDS011;17980;51.744;7.190;2022-09-20T06:39:05;15.57;;;7.83;;
27145;SDS011;17980;51.744;7.190;2022-09-20T06:41:46;16.33;;;6.90;;
27145;SDS011;17980;51.744;7.190;2022-09-20T06:44:14;13.27;;;5.47;;
27145;SDS011;17980;51.744;7.190;2022-09-20T06:46:51;11.20;;;4.97;;
27145;SDS011;17980;51.744;7.190;2022-09-20T06:49:18;9.33;;;5.17;;
27145;SDS011;17980;51.744;7.190;2022-09-20T06:51:46;7.77;;;5.10;;
27145;SDS011;17980;51.744;7.190;2022-09-20T06:54:23;9.83;;;5.03;;
27145;SDS011;17980;51.744;7.190;2022-09-20T06:56:51;13.07;;;4.70;;
27145;SDS011;17980;51.744;7.190;2022-09-20T06:59:20;8.20;;;3.93;;
27145;SDS011;17980;51.744;7.190;2022-09-20T07:02:03;7.90;;;4.33;;
27145;SDS011;17980;51.744;7.190;2022-09-20T07:04:30;8.93;;;4.07;;
27145;SDS011;17980;51.744;7.190;2022-09-20T07:06:59;5.77;;;3.80;;
27145;SDS011;17980;51.744;7.190;2022-09-20T07:12:03;9.73;;;3.40;;
27145;SDS011;17980;51.744;7.190;2022-09-20T07:14:32;9.00;;;3.27;;
27145;SDS011;17980;51.744;7.190;2022-09-20T07:16:59;6.50;;;3.33;;
27145;SDS011;17980;51.744;7.190;2022-09-20T07:19:28;6.93;;;3.27;;
27145;SDS011;17980;51.744;7.190;2022-09-20T07:22:04;8.43;;;3.83;;
27145;SDS011;17980;51.744;7.190;2022-09-20T07:24:32;13.93;;;3.67;;
27145;SDS011;17980;51.744;7.190;2022-09-20T07:27:01;9.03;;;3.77;;
27145;SDS011;17980;51.744;7.190;2022-09-20T07:29:29;11.60;;;3.60;;
27145;SDS011;17980;51.744;7.190;2022-09-20T07:32:16;5.03;;;3.60;;
27145;SDS011;17980;51.744;7.190;2022-09-20T07:34:43;7.30;;;3.50;;
27145;SDS011;17980;51.744;7.190;2022-09-20T07:37:21;5.83;;;3.30;;
27145;SDS011;17980;51.744;7.190;2022-09-20T07:39:48;8.03;;;3.87;;
27145;SDS011;17980;51.744;7.190;2022-09-20T07:42:25;9.70;;;3.53;;
27145;SDS011;17980;51.744;7.190;2022-09-20T07:44:54;10.30;;;4.27;;
27145;SDS011;17980;51.744;7.190;2022-09-20T07:47:21;8.57;;;3.70;;
27145;SDS011;17980;51.744;7.190;2022-09-20T07:52:27;8.77;;;3.53;;
27145;SDS011;17980;51.744;7.190;2022-09-20T07:54:54;10.40;;;3.77;;
27145;SDS011;17980;51.744;7.190;2022-09-20T07:57:22;7.37;;;3.43;;
27145;SDS011;17980;51.744;7.190;2022-09-20T07:59:49;12.10;;;3.90;;
27145;SDS011;17980;51.744;7.190;2022-09-20T08:02:32;9.43;;;3.63;;
27145;SDS011;17980;51.744;7.190;2022-09-20T08:04:59;9.07;;;3.80;;
27145;SDS011;17980;51.744;7.190;2022-09-20T08:07:38;8.47;;;4.00;;
27145;SDS011;17980;51.744;7.190;2022-09-20T08:10:06;13.37;;;4.40;;
27145;SDS011;17980;51.744;7.190;2022-09-20T08:12:44;7.90;;;3.93;;
27145;SDS011;17980;51.744;7.190;2022-09-20T08:15:12;9.87;;;3.80;;
27145;SDS011;17980;51.744;7.190;2022-09-20T08:17:39;7.27;;;3.90;;
27145;SDS011;17980;51.744;7.190;2022-09-20T08:20:07;7.03;;;3.77;;
27145;SDS011;17980;51.744;7.190;2022-09-20T08:22:45;7.67;;;3.40;;
27145;SDS011;17980;51.744;7.190;2022-09-20T08:25:12;8.37;;;3.50;;
27145;SDS011;17980;51.744;7.190;2022-09-20T08:30:23;7.07;;;2.97;;
27145;SDS011;17980;51.744;7.190;2022-09-20T08:33:00;10.13;;;3.33;;
27145;SDS011;17980;51.744;7.190;2022-09-20T08:35:29;5.37;;;2.50;;
27145;SDS011;17980;51.744;7.190;2022-09-20T08:38:06;11.37;;;3.57;;
27145;SDS011;17980;51.744;7.190;2022-09-20T08:40:33;6.23;;;2.80;;
27145;SDS011;17980;51.744;7.190;2022-09-20T08:43:11;6.43;;;2.50;;
27145;SDS011;17980;51.744;7.190;2022-09-20T08:45:39;8.03;;;2.23;;
27145;SDS011;17980;51.744;7.190;2022-09-20T08:48:26;5.37;;;2.07;;
27145;SDS011;17980;51.744;7.190;2022-09-20T08:50:48;7.37;;;2.10;;
27145;SDS011;17980;51.744;7.190;2022-09-20T08:53:25;6.57;;;2.47;;
27145;SDS011;17980;51.744;7.190;2022-09-20T08:55:54;8.20;;;2.47;;
27145;SDS011;17980;51.744;7.190;2022-09-20T08:58:37;6.73;;;2.20;;
27145;SDS011;17980;51.744;7.190;2022-09-20T09:03:40;5.83;;;1.90;;
27145;SDS011;17980;51.744;7.190;2022-09-20T09:06:09;8.50;;;2.07;;
27145;SDS011;17980;51.744;7.190;2022-09-20T09:08:40;10.97;;;2.63;;
27145;SDS011;17980;51.744;7.190;2022-09-20T09:11:18;5.60;;;2.13;;
27145;SDS011;17980;51.744;7.190;2022-09-20T09:13:49;4.60;;;0.97;;
27145;SDS011;17980;51.744;7.190;2022-09-20T09:16:28;5.07;;;0.80;;
27145;SDS011;17980;51.744;7.190;2022-09-20T09:18:57;3.00;;;1.03;;
27145;SDS011;17980;51.744;7.190;2022-09-20T09:21:34;3.37;;;0.60;;
27145;SDS011;17980;51.744;7.190;2022-09-20T09:24:03;5.20;;;0.70;;
27145;SDS011;17980;51.744;7.190;2022-09-20T09:26:35;3.17;;;0.80;;
27145;SDS011;17980;51.744;7.190;2022-09-20T09:29:14;2.47;;;0.60;;
27145;SDS011;17980;51.744;7.190;2022-09-20T09:31:51;4.43;;;0.70;;
27145;SDS011;17980;51.744;7.190;2022-09-20T09:34:23;7.97;;;0.80;;
27145;SDS011;17980;51.744;7.190;2022-09-20T09:36:52;7.80;;;0.87;;
27145;SDS011;17980;51.744;7.190;2022-09-20T09:39:22;5.40;;;0.70;;
27145;SDS011;17980;51.744;7.190;2022-09-20T09:42:00;5.67;;;1.20;;
27145;SDS011;17980;51.744;7.190;2022-09-20T09:44:36;5.10;;;0.90;;
27145;SDS011;17980;51.744;7.190;2022-09-20T09:47:04;5.20;;;3.53;;
27145;SDS011;17980;51.744;7.190;2022-09-20T09:49:55;9.30;;;1.27;;
27145;SDS011;17980;51.744;7.190;2022-09-20T09:52:22;3.60;;;0.63;;
27145;SDS011;17980;51.744;7.190;2022-09-20T09:55:00;3.40;;;0.40;;
27145;SDS011;17980;51.744;7.190;2022-09-20T09:57:36;3.03;;;0.50;;
27145;SDS011;17980;51.744;7.190;2022-09-20T10:00:16;1.93;;;0.60;;
27145;SDS011;17980;51.744;7.190;2022-09-20T10:02:55;4.80;;;0.50;;
27145;SDS011;17980;51.744;7.190;2022-09-20T10:05:53;9.33;;;0.60;;
27145;SDS011;17980;51.744;7.190;2022-09-20T10:08:38;4.07;;;0.50;;
27145;SDS011;17980;51.744;7.190;2022-09-20T10:11:13;5.70;;;0.43;;
27145;SDS011;17980;51.744;7.190;2022-09-20T10:13:57;7.70;;;3.27;;
27145;SDS011;17980;51.744;7.190;2022-09-20T10:16:31;1.57;;;0.60;;
27145;SDS011;17980;51.744;7.190;2022-09-20T10:19:04;7.07;;;0.63;;
27145;SDS011;17980;51.744;7.190;2022-09-20T10:21:42;5.17;;;0.50;;
27145;SDS011;17980;51.744;7.190;2022-09-20T10:24:24;6.63;;;0.57;;
27145;SDS011;17980;51.744;7.190;2022-09-20T10:30:13;2.47;;;0.40;;
27145;SDS011;17980;51.744;7.190;2022-09-20T10:35:25;2.43;;;0.40;;
27145;SDS011;17980;51.744;7.190;2022-09-20T10:38:16;2.93;;;0.97;;
27145;SDS011;17980;51.744;7.190;2022-09-20T10:40:50;2.80;;;0.87;;
27145;SDS011;17980;51.744;7.190;2022-09-20T10:43:34;2.60;;;0.93;;
27145;SDS011;17980;51.744;7.190;2022-09-20T10:46:09;3.37;;;0.60;;
27145;SDS011;17980;51.744;7.190;2022-09-20T10:48:41;3.90;;;0.50;;
27145;SDS011;17980;51.744;7.190;2022-09-20T10:51:23;3.27;;;0.70;;
27145;SDS011;17980;51.744;7.190;2022-09-20T10:53:54;1.50;;;0.30;;
27145;SDS011;17980;51.744;7.190;2022-09-20T10:56:34;1.60;;;0.43;;
27145;SDS011;17980;51.744;7.190;2022-09-20T10:59:14;4.80;;;0.70;;
27145;SDS011;17980;51.744;7.190;2022-09-20T11:05:05;2.40;;;0.40;;
27145;SDS011;17980;51.744;7.190;2022-09-20T11:07:49;3.83;;;0.60;;
27145;SDS011;17980;51.744;7.190;2022-09-20T11:10:33;1.30;;;0.60;;
27145;SDS011;17980;51.744;7.190;2022-09-20T11:13:07;3.57;;;0.50;;
27145;SDS011;17980;51.744;7.190;2022-09-20T11:15:47;4.33;;;0.60;;
27145;SDS011;17980;51.744;7.190;2022-09-20T11:18:19;4.87;;;0.30;;
27145;SDS011;17980;51.744;7.190;2022-09-20T11:23:38;6.27;;;0.73;;
27145;SDS011;17980;51.744;7.190;2022-09-20T11:26:17;3.70;;;0.57;;
27145;SDS011;17980;51.744;7.190;2022-09-20T11:28:51;3.03;;;0.53;;
27145;SDS011;17980;51.744;7.190;2022-09-20T11:31:30;3.70;;;0.50;;
27145;SDS011;17980;51.744;7.190;2022-09-20T11:34:02;2.73;;;0.50;;
27145;SDS011;17980;51.744;7.190;2022-09-20T11:39:27;4.27;;;0.77;;
27145;SDS011;17980;51.744;7.190;2022-09-20T11:41:58;2.40;;;0.50;;
27145;SDS011;17980;51.744;7.190;2022-09-20T11:44:39;1.77;;;0.50;;
27145;SDS011;17980;51.744;7.190;2022-09-20T11:47:08;3.97;;;0.60;;
27145;SDS011;17980;51.744;7.190;2022-09-20T11:49:52;1.43;;;0.70;;
27145;SDS011;17980;51.744;7.190;2022-09-20T11:52:32;0.70;;;0.40;;
27145;SDS011;17980;51.744;7.190;2022-09-20T11:55:16;3.57;;;0.57;;
27145;SDS011;17980;51.744;7.190;2022-09-20T11:58:00;1.87;;;0.40;;
27145;SDS011;17980;51.744;7.190;2022-09-20T12:00:31;2.50;;;0.90;;
27145;SDS011;17980;51.744;7.190;2022-09-20T12:03:21;2.90;;;0.30;;
27145;SDS011;17980;51.744;7.190;2022-09-20T12:05:55;2.67;;;0.40;;
27145;SDS011;17980;51.744;7.190;2022-09-20T12:08:26;5.30;;;0.50;;
27145;SDS011;17980;51.744;7.190;2022-09-20T12:11:04;3.87;;;0.60;;
27145;SDS011;17980;51.744;7.190;2022-09-20T12:13:35;2.27;;;0.63;;
27145;SDS011;17980;51.744;7.190;2022-09-20T12:16:06;2.67;;;0.30;;
27145;SDS011;17980;51.744;7.190;2022-09-20T12:18:37;3.50;;;0.50;;
27145;SDS011;17980;51.744;7.190;2022-09-20T12:24:45;5.07;;;0.40;;
27145;SDS011;17980;51.744;7.190;2022-09-20T12:30:23;2.57;;;0.50;;
27145;SDS011;17980;51.744;7.190;2022-09-20T12:32:59;3.17;;;0.30;;
27145;SDS011;17980;51.744;7.190;2022-09-20T12:38:46;6.27;;;0.40;;
27145;SDS011;17980;51.744;7.190;2022-09-20T12:41:25;4.90;;;0.77;;
27145;SDS011;17980;51.744;7.190;2022-09-20T12:43:57;3.87;;;0.30;;
27145;SDS011;17980;51.744;7.190;2022-09-20T12:46:35;3.03;;;0.50;;
27145;SDS011;17980;51.744;7.190;2022-09-20T12:49:09;3.60;;;0.30;;
27145;SDS011;17980;51.744;7.190;2022-09-20T12:51:53;3.87;;;0.30;;
27145;SDS011;17980;51.744;7.190;2022-09-20T12:54:48;5.37;;;0.70;;
27145;SDS011;17980;51.744;7.190;2022-09-20T12:57:23;2.50;;;0.50;;
27145;SDS011;17980;51.744;7.190;2022-09-20T13:02:42;7.93;;;0.93;;
27145;SDS011;17980;51.744;7.190;2022-09-20T13:05:32;6.03;;;0.70;;
27145;SDS011;17980;51.744;7.190;2022-09-20T13:08:15;2.57;;;0.40;;
27145;SDS011;17980;51.744;7.190;2022-09-20T13:10:47;1.57;;;0.30;;
27145;SDS011;17980;51.744;7.190;2022-09-20T13:13:29;4.00;;;0.80;;
27145;SDS011;17980;51.744;7.190;2022-09-20T13:15:59;6.20;;;3.70;;
27145;SDS011;17980;51.744;7.190;2022-09-20T13:18:30;5.13;;;1.10;;
27145;SDS011;17980;51.744;7.190;2022-09-20T13:20:59;3.97;;;0.40;;
27145;SDS011;17980;51.744;7.190;2022-09-20T13:23:42;1.97;;;0.43;;
27145;SDS011;17980;51.744;7.190;2022-09-20T13:26:14;3.93;;;0.63;;
27145;SDS011;17980;51.744;7.190;2022-09-20T13:28:45;5.90;;;0.60;;
27145;SDS011;17980;51.744;7.190;2022-09-20T13:34:20;4.17;;;0.60;;
27145;SDS011;17980;51.744;7.190;2022-09-20T13:36:50;6.43;;;0.60;;
27145;SDS011;17980;51.744;7.190;2022-09-20T13:39:29;3.60;;;0.60;;
27145;SDS011;17980;51.744;7.190;2022-09-20T13:42:03;3.13;;;0.53;;
27145;SDS011;17980;51.744;7.190;2022-09-20T13:44:40;3.50;;;0.70;;
27145;SDS011;17980;51.744;7.190;2022-09-20T13:47:21;5.90;;;0.60;;
27145;SDS011;17980;51.744;7.190;2022-09-20T13:49:50;5.97;;;1.17;;
27145;SDS011;17980;51.744;7.190;2022-09-20T13:52:28;1.27;;;0.30;;
27145;SDS011;17980;51.744;7.190;2022-09-20T13:54:56;2.77;;;0.40;;
27145;SDS011;17980;51.744;7.190;2022-09-20T13:57:25;2.03;;;0.40;;
27145;SDS011;17980;51.744;7.190;2022-09-20T13:59:54;1.93;;;0.50;;
27145;SDS011;17980;51.744;7.190;2022-09-20T14:02:32;5.97;;;0.40;;
27145;SDS011;17980;51.744;7.190;2022-09-20T14:05:00;2.47;;;0.57;;
27145;SDS011;17980;51.744;7.190;2022-09-20T14:07:31;3.73;;;0.40;;
27145;SDS011;17980;51.744;7.190;2022-09-20T14:10:22;2.93;;;0.40;;
27145;SDS011;17980;51.744;7.190;2022-09-20T14:12:53;3.93;;;0.40;;
27145;SDS011;17980;51.744;7.190;2022-09-20T14:15:31;3.50;;;0.63;;
27145;SDS011;17980;51.744;7.190;2022-09-20T14:18:01;2.00;;;0.30;;
27145;SDS011;17980;51.744;7.190;2022-09-20T14:20:44;2.00;;;0.83;;
27145;SDS011;17980;51.744;7.190;2022-09-20T14:23:22;2.43;;;0.60;;
27145;SDS011;17980;51.744;7.190;2022-09-20T14:26:07;3.03;;;0.40;;
27145;SDS011;17980;51.744;7.190;2022-09-20T14:28:42;3.17;;;0.50;;
27145;SDS011;17980;51.744;7.190;2022-09-20T14:31:12;2.63;;;0.63;;
27145;SDS011;17980;51.744;7.190;2022-09-20T14:36:19;2.27;;;0.40;;
27145;SDS011;17980;51.744;7.190;2022-09-20T14:38:48;1.67;;;0.40;;
27145;SDS011;17980;51.744;7.190;2022-09-20T14:41:26;1.97;;;0.30;;
27145;SDS011;17980;51.744;7.190;2022-09-20T14:43:59;2.30;;;0.40;;
27145;SDS011;17980;51.744;7.190;2022-09-20T14:46:28;4.03;;;0.40;;
27145;SDS011;17980;51.744;7.190;2022-09-20T14:55:17;3.87;;;0.47;;
27145;SDS011;17980;51.744;7.190;2022-09-20T14:57:50;1.73;;;0.40;;
27145;SDS011;17980;51.744;7.190;2022-09-20T15:00:18;3.67;;;0.73;;
27145;SDS011;17980;51.744;7.190;2022-09-20T15:02:55;1.93;;;0.37;;
27145;SDS011;17980;51.744;7.190;2022-09-20T15:05:29;2.77;;;0.60;;
27145;SDS011;17980;51.744;7.190;2022-09-20T15:07:57;2.83;;;0.40;;
27145;SDS011;17980;51.744;7.190;2022-09-20T15:10:25;7.23;;;0.50;;
27145;SDS011;17980;51.744;7.190;2022-09-20T15:13:02;1.07;;;0.40;;
27145;SDS011;17980;51.744;7.190;2022-09-20T15:15:30;3.80;;;0.70;;
27145;SDS011;17980;51.744;7.190;2022-09-20T15:17:58;2.30;;;0.50;;
27145;SDS011;17980;51.744;7.190;2022-09-20T15:20:35;4.83;;;0.70;;
27145;SDS011;17980;51.744;7.190;2022-09-20T15:23:02;3.77;;;0.53;;
27145;SDS011;17980;51.744;7.190;2022-09-20T15:25:39;1.93;;;0.53;;
27145;SDS011;17980;51.744;7.190;2022-09-20T15:28:07;3.50;;;0.60;;
27145;SDS011;17980;51.744;7.190;2022-09-20T15:30:40;2.73;;;0.40;;
27145;SDS011;17980;51.744;7.190;2022-09-20T15:33:17;2.57;;;0.60;;
27145;SDS011;17980;51.744;7.190;2022-09-20T15:35:46;1.07;;;0.40;;
27145;SDS011;17980;51.744;7.190;2022-09-20T15:38:14;1.97;;;0.37;;
27145;SDS011;17980;51.744;7.190;2022-09-20T15:40:44;7.90;;;0.60;;
27145;SDS011;17980;51.744;7.190;2022-09-20T15:43:22;1.80;;;0.60;;
27145;SDS011;17980;51.744;7.190;2022-09-20T15:45:52;2.33;;;0.40;;
27145;SDS011;17980;51.744;7.190;2022-09-20T15:48:22;3.90;;;0.57;;
27145;SDS011;17980;51.744;7.190;2022-09-20T15:51:08;2.33;;;0.40;;
27145;SDS011;17980;51.744;7.190;2022-09-20T15:53:46;1.73;;;0.40;;
27145;SDS011;17980;51.744;7.190;2022-09-20T15:56:21;2.27;;;0.30;;
27145;SDS011;17980;51.744;7.190;2022-09-20T15:58:49;1.23;;;0.20;;
27145;SDS011;17980;51.744;7.190;2022-09-20T16:01:19;1.70;;;0.30;;
27145;SDS011;17980;51.744;7.190;2022-09-20T16:03:56;4.10;;;0.30;;
27145;SDS011;17980;51.744;7.190;2022-09-20T16:06:23;3.63;;;0.63;;
27145;SDS011;17980;51.744;7.190;2022-09-20T16:08:51;3.57;;;0.60;;
27145;SDS011;17980;51.744;7.190;2022-09-20T16:11:19;3.13;;;0.47;;
27145;SDS011;17980;51.744;7.190;2022-09-20T16:13:57;1.27;;;0.40;;
27145;SDS011;17980;51.744;7.190;2022-09-20T16:16:25;2.30;;;0.90;;
27145;SDS011;17980;51.744;7.190;2022-09-20T16:18:54;6.03;;;0.80;;
27145;SDS011;17980;51.744;7.190;2022-09-20T16:21:38;2.40;;;0.40;;
27145;SDS011;17980;51.744;7.190;2022-09-20T16:24:10;2.70;;;0.50;;
27145;SDS011;17980;51.744;7.190;2022-09-20T16:26:40;1.33;;;0.50;;
27145;SDS011;17980;51.744;7.190;2022-09-20T16:32:06;4.13;;;0.90;;
27145;SDS011;17980;51.744;7.190;2022-09-20T16:34:37;2.13;;;0.60;;
27145;SDS011;17980;51.744;7.190;2022-09-20T16:37:08;4.73;;;0.30;;
27145;SDS011;17980;51.744;7.190;2022-09-20T16:42:18;2.63;;;0.70;;
27145;SDS011;17980;51.744;7.190;2022-09-20T16:44:47;1.67;;;0.90;;
27145;SDS011;17980;51.744;7.190;2022-09-20T16:47:15;3.97;;;1.00;;
27145;SDS011;17980;51.744;7.190;2022-09-20T16:49:45;3.00;;;0.77;;
27145;SDS011;17980;51.744;7.190;2022-09-20T16:52:24;3.53;;;1.30;;
27145;SDS011;17980;51.744;7.190;2022-09-20T16:54:53;6.43;;;1.10;;
27145;SDS011;17980;51.744;7.190;2022-09-20T16:57:21;4.00;;;1.10;;
27145;SDS011;17980;51.744;7.190;2022-09-20T16:59:48;2.33;;;1.20;;
27145;SDS011;17980;51.744;7.190;2022-09-20T17:05:18;4.87;;;1.67;;
27145;SDS011;17980;51.744;7.190;2022-09-20T17:10:58;3.33;;;1.00;;
27145;SDS011;17980;51.744;7.190;2022-09-20T17:13:36;2.90;;;1.23;;
27145;SDS011;17980;51.744;7.190;2022-09-20T17:16:18;5.60;;;1.03;;
27145;SDS011;17980;51.744;7.190;2022-09-20T17:18:50;5.67;;;1.00;;